sensor_id;sensor_type;location;lat;lon;timestamp;temperature;humidity
52973;DHT22;38837;48.916;2.336;2023-12-28T00:00:17;16.00;48.70
52973;DHT22;38837;48.916;2.336;2023-12-28T00:02:19;16.00;48.90
52973;DHT22;38837;48.916;2.336;2023-12-28T00:04:21;16.00;49.00
52973;DHT22;38837;48.916;2.336;2023-12-28T00:06:23;15.90;48.90
52973;DHT22;38837;48.916;2.336;2023-12-28T00:08:25;16.00;48.90
52973;DHT22;38837;48.916;2.336;2023-12-28T00:10:27;16.00;49.00
52973;DHT22;38837;48.916;2.336;2023-12-28T00:12:29;16.00;49.10
52973;DHT22;38837;48.916;2.336;2023-12-28T00:14:31;16.00;49.10
52973;DHT22;38837;48.916;2.336;2023-12-28T00:16:33;16.00;48.90
52973;DHT22;38837;48.916;2.336;2023-12-28T00:18:35;16.00;49.00
52973;DHT22;38837;48.916;2.336;2023-12-28T00:20:37;16.00;49.10
52973;DHT22;38837;48.916;2.336;2023-12-28T00:22:39;16.00;49.20
52973;DHT22;38837;48.916;2.336;2023-12-28T00:24:41;16.00;49.30
52973;DHT22;38837;48.916;2.336;2023-12-28T00:26:43;16.00;49.30
52973;DHT22;38837;48.916;2.336;2023-12-28T00:28:45;15.90;49.20
52973;DHT22;38837;48.916;2.336;2023-12-28T00:30:47;16.00;49.30
52973;DHT22;38837;48.916;2.336;2023-12-28T00:32:49;16.00;49.20
52973;DHT22;38837;48.916;2.336;2023-12-28T00:34:51;16.00;49.30
52973;DHT22;38837;48.916;2.336;2023-12-28T00:36:53;16.00;49.50
52973;DHT22;38837;48.916;2.336;2023-12-28T00:38:55;16.00;49.30
52973;DHT22;38837;48.916;2.336;2023-12-28T00:40:57;16.00;49.40
52973;DHT22;38837;48.916;2.336;2023-12-28T00:42:59;16.00;49.40
52973;DHT22;38837;48.916;2.336;2023-12-28T00:45:01;16.00;49.50
52973;DHT22;38837;48.916;2.336;2023-12-28T00:47:04;15.90;49.40
52973;DHT22;38837;48.916;2.336;2023-12-28T00:49:08;15.90;49.50
52973;DHT22;38837;48.916;2.336;2023-12-28T00:51:10;15.90;49.40
52973;DHT22;38837;48.916;2.336;2023-12-28T00:53:12;15.90;49.50
52973;DHT22;38837;48.916;2.336;2023-12-28T00:55:14;16.00;49.60
52973;DHT22;38837;48.916;2.336;2023-12-28T00:57:16;15.90;49.40
52973;DHT22;38837;48.916;2.336;2023-12-28T00:59:17;15.90;49.40
52973;DHT22;38837;48.916;2.336;2023-12-28T01:01:19;16.00;49.60
52973;DHT22;38837;48.916;2.336;2023-12-28T01:03:21;15.90;49.60
52973;DHT22;38837;48.916;2.336;2023-12-28T01:05:24;15.90;49.70
52973;DHT22;38837;48.916;2.336;2023-12-28T01:07:27;16.00;49.70
52973;DHT22;38837;48.916;2.336;2023-12-28T01:09:30;15.90;49.60
52973;DHT22;38837;48.916;2.336;2023-12-28T01:11:33;15.90;49.60
52973;DHT22;38837;48.916;2.336;2023-12-28T01:13:35;15.90;49.50
52973;DHT22;38837;48.916;2.336;2023-12-28T01:15:41;15.90;49.60
52973;DHT22;38837;48.916;2.336;2023-12-28T01:17:43;15.90;49.60
52973;DHT22;38837;48.916;2.336;2023-12-28T01:19:50;16.00;49.60
52973;DHT22;38837;48.916;2.336;2023-12-28T01:21:56;15.90;49.50
52973;DHT22;38837;48.916;2.336;2023-12-28T01:23:58;15.90;49.50
52973;DHT22;38837;48.916;2.336;2023-12-28T01:26:00;15.90;49.70
52973;DHT22;38837;48.916;2.336;2023-12-28T01:28:02;15.90;49.60
52973;DHT22;38837;48.916;2.336;2023-12-28T01:30:05;15.90;49.50
52973;DHT22;38837;48.916;2.336;2023-12-28T01:32:08;15.90;49.60
52973;DHT22;38837;48.916;2.336;2023-12-28T01:34:09;15.90;50.20
52973;DHT22;38837;48.916;2.336;2023-12-28T01:36:19;15.90;49.60
52973;DHT22;38837;48.916;2.336;2023-12-28T01:38:21;16.00;49.60
52973;DHT22;38837;48.916;2.336;2023-12-28T01:40:23;16.00;49.70
52973;DHT22;38837;48.916;2.336;2023-12-28T01:42:25;15.90;49.70
52973;DHT22;38837;48.916;2.336;2023-12-28T01:44:28;15.90;49.60
52973;DHT22;38837;48.916;2.336;2023-12-28T01:46:30;15.90;49.60
52973;DHT22;38837;48.916;2.336;2023-12-28T01:48:33;15.90;49.70
52973;DHT22;38837;48.916;2.336;2023-12-28T01:50:35;15.90;49.70
52973;DHT22;38837;48.916;2.336;2023-12-28T01:52:37;16.00;49.70
52973;DHT22;38837;48.916;2.336;2023-12-28T01:54:40;15.90;49.70
52973;DHT22;38837;48.916;2.336;2023-12-28T01:56:43;15.90;49.70
52973;DHT22;38837;48.916;2.336;2023-12-28T01:58:46;16.00;49.80
52973;DHT22;38837;48.916;2.336;2023-12-28T02:00:50;15.90;49.90
52973;DHT22;38837;48.916;2.336;2023-12-28T02:02:52;15.90;49.90
52973;DHT22;38837;48.916;2.336;2023-12-28T02:04:54;15.90;50.00
52973;DHT22;38837;48.916;2.336;2023-12-28T02:06:57;15.90;50.00
52973;DHT22;38837;48.916;2.336;2023-12-28T02:08:59;15.90;50.00
52973;DHT22;38837;48.916;2.336;2023-12-28T02:11:02;15.90;50.00
52973;DHT22;38837;48.916;2.336;2023-12-28T02:13:04;15.90;50.00
52973;DHT22;38837;48.916;2.336;2023-12-28T02:15:06;15.90;50.10
52973;DHT22;38837;48.916;2.336;2023-12-28T02:19:52;15.90;50.10
52973;DHT22;38837;48.916;2.336;2023-12-28T02:21:55;15.90;50.00
52973;DHT22;38837;48.916;2.336;2023-12-28T02:23:57;15.90;50.20
52973;DHT22;38837;48.916;2.336;2023-12-28T02:25:59;15.90;50.20
52973;DHT22;38837;48.916;2.336;2023-12-28T02:28:01;15.90;50.20
52973;DHT22;38837;48.916;2.336;2023-12-28T02:30:05;15.90;50.30
52973;DHT22;38837;48.916;2.336;2023-12-28T02:32:09;15.90;50.40
52973;DHT22;38837;48.916;2.336;2023-12-28T02:34:16;15.90;50.20
52973;DHT22;38837;48.916;2.336;2023-12-28T02:36:23;15.90;50.20
52973;DHT22;38837;48.916;2.336;2023-12-28T02:38:28;15.90;50.30
52973;DHT22;38837;48.916;2.336;2023-12-28T02:40:39;15.90;50.30
52973;DHT22;38837;48.916;2.336;2023-12-28T02:42:41;15.90;50.30
52973;DHT22;38837;48.916;2.336;2023-12-28T02:44:44;15.90;50.30
52973;DHT22;38837;48.916;2.336;2023-12-28T02:46:46;15.90;50.40
52973;DHT22;38837;48.916;2.336;2023-12-28T02:48:49;15.80;50.40
52973;DHT22;38837;48.916;2.336;2023-12-28T02:50:51;15.90;50.40
52973;DHT22;38837;48.916;2.336;2023-12-28T02:52:53;15.90;50.40
52973;DHT22;38837;48.916;2.336;2023-12-28T02:54:55;15.90;50.40
52973;DHT22;38837;48.916;2.336;2023-12-28T02:56:57;15.90;50.50
52973;DHT22;38837;48.916;2.336;2023-12-28T02:58:59;15.90;50.50
52973;DHT22;38837;48.916;2.336;2023-12-28T03:01:01;15.80;50.50
52973;DHT22;38837;48.916;2.336;2023-12-28T03:03:03;15.90;50.50
52973;DHT22;38837;48.916;2.336;2023-12-28T03:05:06;15.90;50.50
52973;DHT22;38837;48.916;2.336;2023-12-28T03:07:09;15.90;50.60
52973;DHT22;38837;48.916;2.336;2023-12-28T03:09:10;15.90;50.80
52973;DHT22;38837;48.916;2.336;2023-12-28T03:11:14;15.80;50.70
52973;DHT22;38837;48.916;2.336;2023-12-28T03:13:16;15.90;50.90
52973;DHT22;38837;48.916;2.336;2023-12-28T03:15:18;15.90;50.80
52973;DHT22;38837;48.916;2.336;2023-12-28T03:17:20;15.90;50.80
52973;DHT22;38837;48.916;2.336;2023-12-28T03:19:22;15.80;50.90
52973;DHT22;38837;48.916;2.336;2023-12-28T03:21:24;15.90;50.90
52973;DHT22;38837;48.916;2.336;2023-12-28T03:23:25;15.80;50.80
52973;DHT22;38837;48.916;2.336;2023-12-28T03:25:28;15.90;50.70
52973;DHT22;38837;48.916;2.336;2023-12-28T03:27:30;15.80;50.60
52973;DHT22;38837;48.916;2.336;2023-12-28T03:29:32;15.80;50.70
52973;DHT22;38837;48.916;2.336;2023-12-28T03:31:33;15.80;50.70
52973;DHT22;38837;48.916;2.336;2023-12-28T03:33:35;15.90;50.80
52973;DHT22;38837;48.916;2.336;2023-12-28T03:35:37;15.80;50.70
52973;DHT22;38837;48.916;2.336;2023-12-28T03:37:39;15.90;50.70
52973;DHT22;38837;48.916;2.336;2023-12-28T03:39:41;15.90;50.80
52973;DHT22;38837;48.916;2.336;2023-12-28T03:41:43;15.80;50.70
52973;DHT22;38837;48.916;2.336;2023-12-28T03:43:45;15.80;50.70
52973;DHT22;38837;48.916;2.336;2023-12-28T03:45:47;15.80;50.70
52973;DHT22;38837;48.916;2.336;2023-12-28T03:47:49;15.80;50.70
52973;DHT22;38837;48.916;2.336;2023-12-28T03:49:53;15.80;50.80
52973;DHT22;38837;48.916;2.336;2023-12-28T03:51:58;15.80;50.80
52973;DHT22;38837;48.916;2.336;2023-12-28T03:54:01;15.80;50.80
52973;DHT22;38837;48.916;2.336;2023-12-28T03:56:03;15.80;50.70
52973;DHT22;38837;48.916;2.336;2023-12-28T03:58:05;15.80;50.70
52973;DHT22;38837;48.916;2.336;2023-12-28T04:00:07;15.80;50.90
52973;DHT22;38837;48.916;2.336;2023-12-28T04:02:09;15.80;50.90
52973;DHT22;38837;48.916;2.336;2023-12-28T04:04:11;15.80;51.10
52973;DHT22;38837;48.916;2.336;2023-12-28T04:06:14;15.80;51.00
52973;DHT22;38837;48.916;2.336;2023-12-28T04:08:16;15.80;51.00
52973;DHT22;38837;48.916;2.336;2023-12-28T04:10:29;15.80;50.90
52973;DHT22;38837;48.916;2.336;2023-12-28T04:12:32;15.80;50.90
52973;DHT22;38837;48.916;2.336;2023-12-28T04:14:35;15.80;51.00
52973;DHT22;38837;48.916;2.336;2023-12-28T04:16:37;15.80;51.10
52973;DHT22;38837;48.916;2.336;2023-12-28T04:18:39;15.80;51.00
52973;DHT22;38837;48.916;2.336;2023-12-28T04:20:45;15.80;51.00
52973;DHT22;38837;48.916;2.336;2023-12-28T04:22:46;15.80;50.90
52973;DHT22;38837;48.916;2.336;2023-12-28T04:24:49;15.80;51.10
52973;DHT22;38837;48.916;2.336;2023-12-28T04:26:51;15.80;51.10
52973;DHT22;38837;48.916;2.336;2023-12-28T04:28:52;15.80;51.20
52973;DHT22;38837;48.916;2.336;2023-12-28T04:30:54;15.80;51.20
52973;DHT22;38837;48.916;2.336;2023-12-28T04:32:56;15.80;51.20
52973;DHT22;38837;48.916;2.336;2023-12-28T04:34:58;15.80;51.10
52973;DHT22;38837;48.916;2.336;2023-12-28T04:37:00;15.80;51.20
52973;DHT22;38837;48.916;2.336;2023-12-28T04:39:02;15.80;51.10
52973;DHT22;38837;48.916;2.336;2023-12-28T04:41:05;15.80;51.20
52973;DHT22;38837;48.916;2.336;2023-12-28T04:43:07;15.80;51.20
52973;DHT22;38837;48.916;2.336;2023-12-28T04:45:09;15.80;51.20
52973;DHT22;38837;48.916;2.336;2023-12-28T04:47:11;15.80;51.20
52973;DHT22;38837;48.916;2.336;2023-12-28T04:49:13;15.80;51.20
52973;DHT22;38837;48.916;2.336;2023-12-28T04:51:15;15.80;51.20
52973;DHT22;38837;48.916;2.336;2023-12-28T04:53:17;15.80;51.20
52973;DHT22;38837;48.916;2.336;2023-12-28T04:55:19;15.80;51.20
52973;DHT22;38837;48.916;2.336;2023-12-28T04:57:22;15.80;51.10
52973;DHT22;38837;48.916;2.336;2023-12-28T04:59:29;15.80;51.10
52973;DHT22;38837;48.916;2.336;2023-12-28T05:01:31;15.80;51.10
52973;DHT22;38837;48.916;2.336;2023-12-28T05:03:34;15.80;51.10
52973;DHT22;38837;48.916;2.336;2023-12-28T05:05:36;15.80;51.10
52973;DHT22;38837;48.916;2.336;2023-12-28T05:07:38;15.80;51.20
52973;DHT22;38837;48.916;2.336;2023-12-28T05:09:40;15.80;51.10
52973;DHT22;38837;48.916;2.336;2023-12-28T05:11:42;15.80;50.90
52973;DHT22;38837;48.916;2.336;2023-12-28T05:13:44;15.80;51.00
52973;DHT22;38837;48.916;2.336;2023-12-28T05:15:46;15.80;51.10
52973;DHT22;38837;48.916;2.336;2023-12-28T05:17:47;15.80;51.10
52973;DHT22;38837;48.916;2.336;2023-12-28T05:19:50;15.80;51.10
52973;DHT22;38837;48.916;2.336;2023-12-28T05:21:51;15.80;51.10
52973;DHT22;38837;48.916;2.336;2023-12-28T05:23:53;15.80;51.20
52973;DHT22;38837;48.916;2.336;2023-12-28T05:25:55;15.80;51.10
52973;DHT22;38837;48.916;2.336;2023-12-28T05:27:57;15.80;51.00
52973;DHT22;38837;48.916;2.336;2023-12-28T05:30:00;15.80;51.10
52973;DHT22;38837;48.916;2.336;2023-12-28T05:32:01;15.80;51.20
52973;DHT22;38837;48.916;2.336;2023-12-28T05:34:08;15.80;51.10
52973;DHT22;38837;48.916;2.336;2023-12-28T05:36:10;15.80;51.00
52973;DHT22;38837;48.916;2.336;2023-12-28T05:38:13;15.80;51.10
52973;DHT22;38837;48.916;2.336;2023-12-28T05:40:14;15.80;51.10
52973;DHT22;38837;48.916;2.336;2023-12-28T05:42:16;15.80;51.10
52973;DHT22;38837;48.916;2.336;2023-12-28T05:44:18;15.80;51.20
52973;DHT22;38837;48.916;2.336;2023-12-28T05:46:20;15.80;51.00
52973;DHT22;38837;48.916;2.336;2023-12-28T05:48:27;15.80;51.20
52973;DHT22;38837;48.916;2.336;2023-12-28T05:50:29;15.80;51.20
52973;DHT22;38837;48.916;2.336;2023-12-28T05:52:31;15.80;51.20
52973;DHT22;38837;48.916;2.336;2023-12-28T05:54:32;15.80;51.20
52973;DHT22;38837;48.916;2.336;2023-12-28T05:56:34;15.80;51.20
52973;DHT22;38837;48.916;2.336;2023-12-28T05:58:41;15.80;51.10
52973;DHT22;38837;48.916;2.336;2023-12-28T06:00:48;15.70;51.20
52973;DHT22;38837;48.916;2.336;2023-12-28T06:02:50;15.80;51.20
52973;DHT22;38837;48.916;2.336;2023-12-28T06:04:53;15.80;51.40
52973;DHT22;38837;48.916;2.336;2023-12-28T06:06:55;15.70;51.20
52973;DHT22;38837;48.916;2.336;2023-12-28T06:08:57;15.70;51.20
52973;DHT22;38837;48.916;2.336;2023-12-28T06:11:00;15.70;51.10
52973;DHT22;38837;48.916;2.336;2023-12-28T06:13:02;15.80;51.30
52973;DHT22;38837;48.916;2.336;2023-12-28T06:15:04;15.70;51.30
52973;DHT22;38837;48.916;2.336;2023-12-28T06:17:06;15.70;51.20
52973;DHT22;38837;48.916;2.336;2023-12-28T06:19:08;15.80;51.20
52973;DHT22;38837;48.916;2.336;2023-12-28T06:21:11;15.70;51.20
52973;DHT22;38837;48.916;2.336;2023-12-28T06:23:13;15.70;51.20
52973;DHT22;38837;48.916;2.336;2023-12-28T06:25:15;15.80;51.20
52973;DHT22;38837;48.916;2.336;2023-12-28T06:27:17;15.70;51.20
52973;DHT22;38837;48.916;2.336;2023-12-28T06:29:19;15.70;51.30
52973;DHT22;38837;48.916;2.336;2023-12-28T06:31:21;15.70;51.30
52973;DHT22;38837;48.916;2.336;2023-12-28T06:33:23;15.70;51.10
52973;DHT22;38837;48.916;2.336;2023-12-28T06:35:25;15.70;51.20
52973;DHT22;38837;48.916;2.336;2023-12-28T06:37:27;15.70;51.20
52973;DHT22;38837;48.916;2.336;2023-12-28T06:39:28;15.70;51.30
52973;DHT22;38837;48.916;2.336;2023-12-28T06:41:30;15.70;51.20
52973;DHT22;38837;48.916;2.336;2023-12-28T06:43:32;15.70;51.20
52973;DHT22;38837;48.916;2.336;2023-12-28T06:45:34;15.70;51.20
52973;DHT22;38837;48.916;2.336;2023-12-28T06:47:36;15.70;51.20
52973;DHT22;38837;48.916;2.336;2023-12-28T06:49:38;15.70;51.30
52973;DHT22;38837;48.916;2.336;2023-12-28T06:51:41;15.70;51.30
52973;DHT22;38837;48.916;2.336;2023-12-28T06:53:45;15.70;51.30
52973;DHT22;38837;48.916;2.336;2023-12-28T06:55:47;15.70;51.30
52973;DHT22;38837;48.916;2.336;2023-12-28T06:57:49;15.70;51.30
52973;DHT22;38837;48.916;2.336;2023-12-28T06:59:50;15.70;51.40
52973;DHT22;38837;48.916;2.336;2023-12-28T07:01:52;15.70;51.40
52973;DHT22;38837;48.916;2.336;2023-12-28T07:03:54;15.70;51.30
52973;DHT22;38837;48.916;2.336;2023-12-28T07:05:56;15.70;51.30
52973;DHT22;38837;48.916;2.336;2023-12-28T07:07:58;15.70;51.30
52973;DHT22;38837;48.916;2.336;2023-12-28T07:10:00;15.70;51.30
52973;DHT22;38837;48.916;2.336;2023-12-28T07:12:02;15.70;51.50
52973;DHT22;38837;48.916;2.336;2023-12-28T07:14:04;15.70;51.30
52973;DHT22;38837;48.916;2.336;2023-12-28T07:16:06;15.70;51.40
52973;DHT22;38837;48.916;2.336;2023-12-28T07:18:09;15.70;51.50
52973;DHT22;38837;48.916;2.336;2023-12-28T07:20:11;15.70;51.50
52973;DHT22;38837;48.916;2.336;2023-12-28T07:22:13;15.70;51.50
52973;DHT22;38837;48.916;2.336;2023-12-28T07:24:15;15.70;52.00
52973;DHT22;38837;48.916;2.336;2023-12-28T07:26:17;15.70;51.70
52973;DHT22;38837;48.916;2.336;2023-12-28T07:28:19;15.70;51.60
52973;DHT22;38837;48.916;2.336;2023-12-28T07:30:22;15.70;51.60
52973;DHT22;38837;48.916;2.336;2023-12-28T07:32:24;15.70;51.60
52973;DHT22;38837;48.916;2.336;2023-12-28T07:34:27;15.70;51.60
52973;DHT22;38837;48.916;2.336;2023-12-28T07:36:29;15.70;51.60
52973;DHT22;38837;48.916;2.336;2023-12-28T07:38:31;15.70;51.70
52973;DHT22;38837;48.916;2.336;2023-12-28T07:40:33;15.70;51.70
52973;DHT22;38837;48.916;2.336;2023-12-28T07:42:35;15.70;51.70
52973;DHT22;38837;48.916;2.336;2023-12-28T07:44:37;15.70;51.70
52973;DHT22;38837;48.916;2.336;2023-12-28T07:46:39;15.60;51.70
52973;DHT22;38837;48.916;2.336;2023-12-28T07:48:41;15.70;51.70
52973;DHT22;38837;48.916;2.336;2023-12-28T07:50:44;15.60;51.60
52973;DHT22;38837;48.916;2.336;2023-12-28T07:52:46;15.60;51.70
52973;DHT22;38837;48.916;2.336;2023-12-28T07:54:48;15.70;51.80
52973;DHT22;38837;48.916;2.336;2023-12-28T07:56:50;15.70;51.80
52973;DHT22;38837;48.916;2.336;2023-12-28T07:58:52;15.70;51.80
52973;DHT22;38837;48.916;2.336;2023-12-28T08:00:54;15.70;51.70
52973;DHT22;38837;48.916;2.336;2023-12-28T08:02:56;15.70;51.80
52973;DHT22;38837;48.916;2.336;2023-12-28T08:04:58;15.70;51.90
52973;DHT22;38837;48.916;2.336;2023-12-28T08:07:00;15.60;51.70
52973;DHT22;38837;48.916;2.336;2023-12-28T08:09:02;15.60;51.70
52973;DHT22;38837;48.916;2.336;2023-12-28T08:11:04;15.70;51.80
52973;DHT22;38837;48.916;2.336;2023-12-28T08:13:06;15.70;51.80
52973;DHT22;38837;48.916;2.336;2023-12-28T08:15:08;15.70;51.80
52973;DHT22;38837;48.916;2.336;2023-12-28T08:17:10;15.70;51.80
52973;DHT22;38837;48.916;2.336;2023-12-28T08:19:13;15.70;51.80
52973;DHT22;38837;48.916;2.336;2023-12-28T08:21:15;15.60;51.70
52973;DHT22;38837;48.916;2.336;2023-12-28T08:23:17;15.70;51.70
52973;DHT22;38837;48.916;2.336;2023-12-28T08:25:19;15.60;51.80
52973;DHT22;38837;48.916;2.336;2023-12-28T08:27:21;15.70;51.90
52973;DHT22;38837;48.916;2.336;2023-12-28T08:29:23;15.70;51.80
52973;DHT22;38837;48.916;2.336;2023-12-28T08:31:25;15.70;51.80
52973;DHT22;38837;48.916;2.336;2023-12-28T08:33:32;15.70;51.80
52973;DHT22;38837;48.916;2.336;2023-12-28T08:35:34;15.70;51.70
52973;DHT22;38837;48.916;2.336;2023-12-28T08:37:36;15.70;51.80
52973;DHT22;38837;48.916;2.336;2023-12-28T08:39:39;15.70;51.80
52973;DHT22;38837;48.916;2.336;2023-12-28T08:41:41;15.70;51.80
52973;DHT22;38837;48.916;2.336;2023-12-28T08:43:43;15.70;51.80
52973;DHT22;38837;48.916;2.336;2023-12-28T08:45:50;15.70;51.70
52973;DHT22;38837;48.916;2.336;2023-12-28T08:47:56;15.70;51.70
52973;DHT22;38837;48.916;2.336;2023-12-28T08:49:59;15.70;51.70
52973;DHT22;38837;48.916;2.336;2023-12-28T08:52:01;15.70;51.70
52973;DHT22;38837;48.916;2.336;2023-12-28T08:54:03;15.70;51.70
52973;DHT22;38837;48.916;2.336;2023-12-28T08:56:22;15.70;51.70
52973;DHT22;38837;48.916;2.336;2023-12-28T08:58:24;15.70;51.80
52973;DHT22;38837;48.916;2.336;2023-12-28T09:00:26;15.70;51.80
52973;DHT22;38837;48.916;2.336;2023-12-28T09:02:29;15.70;51.90
52973;DHT22;38837;48.916;2.336;2023-12-28T09:04:31;15.70;51.90
52973;DHT22;38837;48.916;2.336;2023-12-28T09:06:33;15.70;51.70
52973;DHT22;38837;48.916;2.336;2023-12-28T09:08:37;15.70;51.80
52973;DHT22;38837;48.916;2.336;2023-12-28T09:10:39;15.70;51.80
52973;DHT22;38837;48.916;2.336;2023-12-28T09:12:42;15.70;51.70
52973;DHT22;38837;48.916;2.336;2023-12-28T09:14:44;15.70;51.70
52973;DHT22;38837;48.916;2.336;2023-12-28T09:16:47;15.70;51.80
52973;DHT22;38837;48.916;2.336;2023-12-28T09:18:49;15.70;51.80
52973;DHT22;38837;48.916;2.336;2023-12-28T09:20:51;15.70;51.80
52973;DHT22;38837;48.916;2.336;2023-12-28T09:22:53;15.70;51.80
52973;DHT22;38837;48.916;2.336;2023-12-28T09:24:57;15.70;51.90
52973;DHT22;38837;48.916;2.336;2023-12-28T09:26:59;15.70;51.90
52973;DHT22;38837;48.916;2.336;2023-12-28T09:29:01;15.70;51.80
52973;DHT22;38837;48.916;2.336;2023-12-28T09:31:03;15.70;51.80
52973;DHT22;38837;48.916;2.336;2023-12-28T09:33:06;15.70;51.80
52973;DHT22;38837;48.916;2.336;2023-12-28T09:35:08;15.70;52.00
52973;DHT22;38837;48.916;2.336;2023-12-28T09:37:09;15.70;51.90
52973;DHT22;38837;48.916;2.336;2023-12-28T09:39:11;15.70;51.90
52973;DHT22;38837;48.916;2.336;2023-12-28T09:41:15;15.70;52.00
52973;DHT22;38837;48.916;2.336;2023-12-28T09:43:31;15.70;52.10
52973;DHT22;38837;48.916;2.336;2023-12-28T09:45:39;15.70;52.10
52973;DHT22;38837;48.916;2.336;2023-12-28T09:47:42;15.70;52.20
52973;DHT22;38837;48.916;2.336;2023-12-28T09:49:45;15.70;52.00
52973;DHT22;38837;48.916;2.336;2023-12-28T09:51:48;15.70;52.10
52973;DHT22;38837;48.916;2.336;2023-12-28T09:53:50;15.70;52.00
52973;DHT22;38837;48.916;2.336;2023-12-28T09:55:53;15.70;52.10
52973;DHT22;38837;48.916;2.336;2023-12-28T09:57:56;15.70;52.00
52973;DHT22;38837;48.916;2.336;2023-12-28T09:59:59;15.70;52.00
52973;DHT22;38837;48.916;2.336;2023-12-28T10:02:01;15.80;52.10
52973;DHT22;38837;48.916;2.336;2023-12-28T10:04:04;15.70;52.10
52973;DHT22;38837;48.916;2.336;2023-12-28T10:06:07;15.70;52.10
52973;DHT22;38837;48.916;2.336;2023-12-28T10:08:11;15.70;52.10
52973;DHT22;38837;48.916;2.336;2023-12-28T10:10:15;15.70;52.00
52973;DHT22;38837;48.916;2.336;2023-12-28T10:12:17;15.80;52.10
52973;DHT22;38837;48.916;2.336;2023-12-28T10:14:20;15.80;52.00
52973;DHT22;38837;48.916;2.336;2023-12-28T10:16:22;15.80;52.10
52973;DHT22;38837;48.916;2.336;2023-12-28T10:18:24;15.80;51.90
52973;DHT22;38837;48.916;2.336;2023-12-28T10:20:27;15.80;52.10
52973;DHT22;38837;48.916;2.336;2023-12-28T10:22:29;15.80;52.50
52973;DHT22;38837;48.916;2.336;2023-12-28T10:24:31;15.80;52.70
52973;DHT22;38837;48.916;2.336;2023-12-28T10:26:33;15.80;52.80
52973;DHT22;38837;48.916;2.336;2023-12-28T10:28:35;15.80;52.70
52973;DHT22;38837;48.916;2.336;2023-12-28T10:30:41;15.80;52.60
52973;DHT22;38837;48.916;2.336;2023-12-28T10:32:43;15.80;52.80
52973;DHT22;38837;48.916;2.336;2023-12-28T10:34:47;15.80;53.30
52973;DHT22;38837;48.916;2.336;2023-12-28T10:36:50;15.80;53.00
52973;DHT22;38837;48.916;2.336;2023-12-28T10:38:53;15.80;52.90
52973;DHT22;38837;48.916;2.336;2023-12-28T10:40:56;15.80;53.40
52973;DHT22;38837;48.916;2.336;2023-12-28T10:42:58;15.90;53.00
52973;DHT22;38837;48.916;2.336;2023-12-28T10:45:05;15.90;52.90
52973;DHT22;38837;48.916;2.336;2023-12-28T10:47:12;15.90;52.90
52973;DHT22;38837;48.916;2.336;2023-12-28T10:49:17;15.90;53.00
52973;DHT22;38837;48.916;2.336;2023-12-28T10:51:21;15.80;52.90
52973;DHT22;38837;48.916;2.336;2023-12-28T10:58:28;15.90;52.70
52973;DHT22;38837;48.916;2.336;2023-12-28T11:00:47;15.90;52.80
52973;DHT22;38837;48.916;2.336;2023-12-28T11:02:58;15.90;52.90
52973;DHT22;38837;48.916;2.336;2023-12-28T11:05:00;15.80;52.70
52973;DHT22;38837;48.916;2.336;2023-12-28T11:07:05;15.90;52.70
52973;DHT22;38837;48.916;2.336;2023-12-28T11:09:09;15.90;52.70
52973;DHT22;38837;48.916;2.336;2023-12-28T11:11:11;15.80;52.20
52973;DHT22;38837;48.916;2.336;2023-12-28T11:13:15;15.90;52.80
52973;DHT22;38837;48.916;2.336;2023-12-28T11:15:18;15.90;52.90
52973;DHT22;38837;48.916;2.336;2023-12-28T11:17:21;15.90;52.90
52973;DHT22;38837;48.916;2.336;2023-12-28T11:19:27;15.90;52.90
52973;DHT22;38837;48.916;2.336;2023-12-28T11:21:31;15.90;53.00
52973;DHT22;38837;48.916;2.336;2023-12-28T11:23:34;15.90;52.90
52973;DHT22;38837;48.916;2.336;2023-12-28T11:25:36;15.90;52.70
52973;DHT22;38837;48.916;2.336;2023-12-28T11:27:38;15.90;52.70
52973;DHT22;38837;48.916;2.336;2023-12-28T11:29:43;15.90;52.70
52973;DHT22;38837;48.916;2.336;2023-12-28T11:31:53;15.90;52.80
52973;DHT22;38837;48.916;2.336;2023-12-28T11:33:55;15.90;52.70
52973;DHT22;38837;48.916;2.336;2023-12-28T11:35:58;15.90;52.70
52973;DHT22;38837;48.916;2.336;2023-12-28T11:38:00;15.90;52.80
52973;DHT22;38837;48.916;2.336;2023-12-28T11:40:17;15.90;52.80
52973;DHT22;38837;48.916;2.336;2023-12-28T11:42:22;15.90;52.70
52973;DHT22;38837;48.916;2.336;2023-12-28T11:44:27;15.90;52.90
52973;DHT22;38837;48.916;2.336;2023-12-28T11:46:29;15.90;52.80
52973;DHT22;38837;48.916;2.336;2023-12-28T11:48:31;15.90;52.60
52973;DHT22;38837;48.916;2.336;2023-12-28T11:50:33;15.90;52.80
52973;DHT22;38837;48.916;2.336;2023-12-28T11:52:35;15.90;52.80
52973;DHT22;38837;48.916;2.336;2023-12-28T11:54:37;15.90;52.90
52973;DHT22;38837;48.916;2.336;2023-12-28T11:56:39;15.90;52.80
52973;DHT22;38837;48.916;2.336;2023-12-28T11:58:41;15.90;52.80
52973;DHT22;38837;48.916;2.336;2023-12-28T12:00:47;15.90;52.80
52973;DHT22;38837;48.916;2.336;2023-12-28T12:02:49;15.90;52.30
52973;DHT22;38837;48.916;2.336;2023-12-28T12:04:51;15.90;52.60
52973;DHT22;38837;48.916;2.336;2023-12-28T12:06:56;15.90;51.90
52973;DHT22;38837;48.916;2.336;2023-12-28T12:08:58;16.00;52.10
52973;DHT22;38837;48.916;2.336;2023-12-28T12:11:01;16.00;52.20
52973;DHT22;38837;48.916;2.336;2023-12-28T12:13:05;15.90;52.40
52973;DHT22;38837;48.916;2.336;2023-12-28T12:15:08;15.90;51.70
52973;DHT22;38837;48.916;2.336;2023-12-28T12:17:10;16.00;52.10
52973;DHT22;38837;48.916;2.336;2023-12-28T12:19:12;16.00;52.30
52973;DHT22;38837;48.916;2.336;2023-12-28T12:21:14;16.00;52.80
52973;DHT22;38837;48.916;2.336;2023-12-28T12:23:17;16.00;52.50
52973;DHT22;38837;48.916;2.336;2023-12-28T12:25:18;16.00;51.90
52973;DHT22;38837;48.916;2.336;2023-12-28T12:27:21;16.00;52.50
52973;DHT22;38837;48.916;2.336;2023-12-28T12:29:23;16.00;52.30
52973;DHT22;38837;48.916;2.336;2023-12-28T12:31:30;16.00;52.30
52973;DHT22;38837;48.916;2.336;2023-12-28T12:33:33;16.00;52.00
52973;DHT22;38837;48.916;2.336;2023-12-28T12:35:35;16.00;52.20
52973;DHT22;38837;48.916;2.336;2023-12-28T12:37:37;16.00;52.50
52973;DHT22;38837;48.916;2.336;2023-12-28T12:39:39;16.00;52.50
52973;DHT22;38837;48.916;2.336;2023-12-28T12:41:41;16.00;52.40
52973;DHT22;38837;48.916;2.336;2023-12-28T12:43:43;16.00;52.60
52973;DHT22;38837;48.916;2.336;2023-12-28T12:45:45;16.00;52.70
52973;DHT22;38837;48.916;2.336;2023-12-28T12:47:51;16.00;52.60
52973;DHT22;38837;48.916;2.336;2023-12-28T12:49:55;16.00;52.70
52973;DHT22;38837;48.916;2.336;2023-12-28T12:51:57;16.00;52.50
52973;DHT22;38837;48.916;2.336;2023-12-28T12:54:03;16.00;52.70
52973;DHT22;38837;48.916;2.336;2023-12-28T12:56:06;16.00;52.70
52973;DHT22;38837;48.916;2.336;2023-12-28T12:58:10;16.00;52.50
52973;DHT22;38837;48.916;2.336;2023-12-28T13:00:12;16.00;52.40
52973;DHT22;38837;48.916;2.336;2023-12-28T13:02:15;16.00;52.70